SASA/SLA METAR and TAF weather

Enter ICAO airport designator
Station Type Date Time Source
SASA METAR 2019/12/08 17:00 UTC NOAA

SASA 081700Z 05010KT 9999 BKN025 TCU FEW035 CB 26/15 Q1012


Station Type Date Time Source
SASA Decoded METAR 2019/12/08 17:00 UTC NOAA

Salta Aerodrome, Argentina (SASA) 24-51S 065-29W 1221M
Dec 08, 2019 - 12:00 PM EST / 2019.12.08 1700 UTC
Wind: from the NE (050 degrees) at 12 MPH (10 KT):0
Visibility: greater than 7 mile(s):0
Sky conditions: mostly cloudy
Weather: Cumulonimbus clouds, towering cumulus clouds observed
Temperature: 78 F (26 C)
Dew Point: 59 F (15 C)
Relative Humidity: 50%
Pressure (altimeter): 29.88 in. Hg (1012 hPa)
ob: SASA 081700Z 05010KT 9999 BKN025 TCU FEW035 CB 26/15 Q1012
cycle: 17

Station Type Date Time Source
SASA TAF 2019/12/08 18:03 UTC NOAA

TAF SASA 081700Z 0818/0918 23005KT 9999 SCT020 FEW035CB TX27/0918Z TN16/0910Z
BECMG 0821/0900 09010KT 5000 TSRA BKN015 FEW035CB
TEMPO 0903/0906 14005KT 7000 RA BKN015 FEW035CB
BECMG 0910/0912 18005KT 9999 SCT020

Example: see airport list